sensor_id;sensor_type;location;lat;lon;timestamp;P1;durP1;ratioP1;P2;durP2;ratioP2
21010;SDS011;10663;42.714;23.274;2023-01-16T00:00:10;56.80;;;35.35;;
21010;SDS011;10663;42.714;23.274;2023-01-16T00:01:41;57.00;;;35.03;;
21010;SDS011;10663;42.714;23.274;2023-01-16T00:03:12;54.92;;;33.35;;
21010;SDS011;10663;42.714;23.274;2023-01-16T00:04:43;49.05;;;31.98;;
21010;SDS011;10663;42.714;23.274;2023-01-16T00:06:14;54.88;;;33.83;;
21010;SDS011;10663;42.714;23.274;2023-01-16T00:07:45;55.25;;;34.72;;
21010;SDS011;10663;42.714;23.274;2023-01-16T00:09:16;53.10;;;33.63;;
21010;SDS011;10663;42.714;23.274;2023-01-16T00:10:48;51.83;;;32.22;;
21010;SDS011;10663;42.714;23.274;2023-01-16T00:12:19;53.80;;;32.53;;
21010;SDS011;10663;42.714;23.274;2023-01-16T00:13:50;54.47;;;34.23;;
21010;SDS011;10663;42.714;23.274;2023-01-16T00:15:20;50.63;;;31.33;;
21010;SDS011;10663;42.714;23.274;2023-01-16T00:16:51;52.30;;;33.33;;
21010;SDS011;10663;42.714;23.274;2023-01-16T00:18:22;54.47;;;34.93;;
21010;SDS011;10663;42.714;23.274;2023-01-16T00:19:53;53.57;;;32.03;;
21010;SDS011;10663;42.714;23.274;2023-01-16T00:21:24;52.23;;;32.60;;
21010;SDS011;10663;42.714;23.274;2023-01-16T00:22:56;48.20;;;30.45;;
21010;SDS011;10663;42.714;23.274;2023-01-16T00:24:27;45.38;;;30.42;;
21010;SDS011;10663;42.714;23.274;2023-01-16T00:25:58;46.95;;;30.40;;
21010;SDS011;10663;42.714;23.274;2023-01-16T00:27:28;49.63;;;31.98;;
21010;SDS011;10663;42.714;23.274;2023-01-16T00:28:59;55.40;;;34.63;;
21010;SDS011;10663;42.714;23.274;2023-01-16T00:30:32;52.40;;;34.55;;
21010;SDS011;10663;42.714;23.274;2023-01-16T00:32:03;50.03;;;33.28;;
21010;SDS011;10663;42.714;23.274;2023-01-16T00:33:34;55.75;;;32.83;;
21010;SDS011;10663;42.714;23.274;2023-01-16T00:35:05;55.00;;;33.08;;
21010;SDS011;10663;42.714;23.274;2023-01-16T00:36:36;50.83;;;32.03;;
21010;SDS011;10663;42.714;23.274;2023-01-16T00:38:09;50.85;;;31.65;;
21010;SDS011;10663;42.714;23.274;2023-01-16T00:39:39;50.20;;;29.70;;
21010;SDS011;10663;42.714;23.274;2023-01-16T00:41:10;51.10;;;31.40;;
21010;SDS011;10663;42.714;23.274;2023-01-16T00:42:41;51.73;;;32.33;;
21010;SDS011;10663;42.714;23.274;2023-01-16T00:44:13;53.90;;;32.93;;
21010;SDS011;10663;42.714;23.274;2023-01-16T00:45:44;52.50;;;32.35;;
21010;SDS011;10663;42.714;23.274;2023-01-16T00:47:16;46.80;;;30.55;;
21010;SDS011;10663;42.714;23.274;2023-01-16T00:48:47;45.88;;;29.65;;
21010;SDS011;10663;42.714;23.274;2023-01-16T00:50:17;47.88;;;30.92;;
21010;SDS011;10663;42.714;23.274;2023-01-16T00:51:48;47.40;;;31.45;;
21010;SDS011;10663;42.714;23.274;2023-01-16T00:53:19;54.38;;;33.35;;
21010;SDS011;10663;42.714;23.274;2023-01-16T00:54:50;51.78;;;32.38;;
21010;SDS011;10663;42.714;23.274;2023-01-16T00:56:22;52.40;;;33.75;;
21010;SDS011;10663;42.714;23.274;2023-01-16T00:57:53;53.28;;;31.33;;
21010;SDS011;10663;42.714;23.274;2023-01-16T00:59:24;50.90;;;31.48;;
21010;SDS011;10663;42.714;23.274;2023-01-16T01:00:55;50.40;;;32.20;;
21010;SDS011;10663;42.714;23.274;2023-01-16T01:02:26;51.95;;;31.63;;
21010;SDS011;10663;42.714;23.274;2023-01-16T01:03:58;51.23;;;32.53;;
21010;SDS011;10663;42.714;23.274;2023-01-16T01:05:29;50.70;;;31.30;;
21010;SDS011;10663;42.714;23.274;2023-01-16T01:07:00;50.13;;;31.23;;
21010;SDS011;10663;42.714;23.274;2023-01-16T01:08:31;49.85;;;31.85;;
21010;SDS011;10663;42.714;23.274;2023-01-16T01:10:02;51.67;;;31.67;;
21010;SDS011;10663;42.714;23.274;2023-01-16T01:11:33;51.67;;;31.30;;
21010;SDS011;10663;42.714;23.274;2023-01-16T01:13:04;52.88;;;31.88;;
21010;SDS011;10663;42.714;23.274;2023-01-16T01:14:36;45.88;;;29.00;;
21010;SDS011;10663;42.714;23.274;2023-01-16T01:16:07;52.47;;;32.53;;
21010;SDS011;10663;42.714;23.274;2023-01-16T01:17:38;49.85;;;31.92;;
21010;SDS011;10663;42.714;23.274;2023-01-16T01:19:10;45.92;;;28.75;;
21010;SDS011;10663;42.714;23.274;2023-01-16T01:20:40;46.90;;;29.42;;
21010;SDS011;10663;42.714;23.274;2023-01-16T01:22:11;47.13;;;29.27;;
21010;SDS011;10663;42.714;23.274;2023-01-16T01:23:42;50.67;;;31.85;;
21010;SDS011;10663;42.714;23.274;2023-01-16T01:25:13;54.38;;;32.22;;
21010;SDS011;10663;42.714;23.274;2023-01-16T01:26:44;47.22;;;30.23;;
21010;SDS011;10663;42.714;23.274;2023-01-16T01:28:15;37.58;;;24.23;;
21010;SDS011;10663;42.714;23.274;2023-01-16T01:29:46;43.00;;;26.73;;
21010;SDS011;10663;42.714;23.274;2023-01-16T01:31:17;46.67;;;28.75;;
21010;SDS011;10663;42.714;23.274;2023-01-16T01:32:48;49.13;;;30.15;;
21010;SDS011;10663;42.714;23.274;2023-01-16T01:34:19;52.15;;;32.20;;
21010;SDS011;10663;42.714;23.274;2023-01-16T01:35:50;51.42;;;31.67;;
21010;SDS011;10663;42.714;23.274;2023-01-16T01:37:21;49.53;;;31.70;;
21010;SDS011;10663;42.714;23.274;2023-01-16T01:38:52;45.33;;;29.13;;
21010;SDS011;10663;42.714;23.274;2023-01-16T01:40:23;48.05;;;29.63;;
21010;SDS011;10663;42.714;23.274;2023-01-16T01:41:54;52.05;;;33.10;;
21010;SDS011;10663;42.714;23.274;2023-01-16T01:43:49;45.10;;;28.90;;
21010;SDS011;10663;42.714;23.274;2023-01-16T01:46:54;49.03;;;30.30;;
21010;SDS011;10663;42.714;23.274;2023-01-16T01:48:27;50.53;;;31.63;;
21010;SDS011;10663;42.714;23.274;2023-01-16T01:50:02;48.50;;;30.90;;
21010;SDS011;10663;42.714;23.274;2023-01-16T01:51:42;45.70;;;28.77;;
21010;SDS011;10663;42.714;23.274;2023-01-16T01:53:15;49.55;;;28.98;;
21010;SDS011;10663;42.714;23.274;2023-01-16T01:54:51;49.10;;;30.73;;
21010;SDS011;10663;42.714;23.274;2023-01-16T01:56:28;46.80;;;30.40;;
21010;SDS011;10663;42.714;23.274;2023-01-16T01:58:22;50.00;;;30.67;;
21010;SDS011;10663;42.714;23.274;2023-01-16T02:00:01;46.97;;;29.20;;
21010;SDS011;10663;42.714;23.274;2023-01-16T02:01:42;48.05;;;29.63;;
21010;SDS011;10663;42.714;23.274;2023-01-16T02:03:14;46.40;;;28.55;;
21010;SDS011;10663;42.714;23.274;2023-01-16T02:04:48;50.13;;;30.00;;
21010;SDS011;10663;42.714;23.274;2023-01-16T02:06:35;45.30;;;29.30;;
21010;SDS011;10663;42.714;23.274;2023-01-16T02:08:14;47.77;;;30.40;;
21010;SDS011;10663;42.714;23.274;2023-01-16T02:09:46;44.35;;;29.38;;
21010;SDS011;10663;42.714;23.274;2023-01-16T02:11:31;44.53;;;28.60;;
21010;SDS011;10663;42.714;23.274;2023-01-16T02:13:06;45.60;;;28.58;;
21010;SDS011;10663;42.714;23.274;2023-01-16T02:14:38;44.78;;;28.83;;
21010;SDS011;10663;42.714;23.274;2023-01-16T02:16:11;47.55;;;28.92;;
21010;SDS011;10663;42.714;23.274;2023-01-16T02:18:01;48.78;;;29.30;;
21010;SDS011;10663;42.714;23.274;2023-01-16T02:19:59;45.10;;;29.73;;
21010;SDS011;10663;42.714;23.274;2023-01-16T02:27:20;46.50;;;30.00;;
21010;SDS011;10663;42.714;23.274;2023-01-16T02:37:47;46.97;;;29.73;;
21010;SDS011;10663;42.714;23.274;2023-01-16T02:43:19;47.47;;;28.90;;
21010;SDS011;10663;42.714;23.274;2023-01-16T02:45:01;47.42;;;30.27;;
21010;SDS011;10663;42.714;23.274;2023-01-16T02:46:35;50.45;;;31.27;;
21010;SDS011;10663;42.714;23.274;2023-01-16T02:48:21;46.45;;;29.05;;
21010;SDS011;10663;42.714;23.274;2023-01-16T02:51:56;45.65;;;29.35;;
21010;SDS011;10663;42.714;23.274;2023-01-16T02:53:36;46.25;;;28.88;;
21010;SDS011;10663;42.714;23.274;2023-01-16T02:55:29;47.42;;;29.00;;
21010;SDS011;10663;42.714;23.274;2023-01-16T02:57:07;44.30;;;27.45;;
21010;SDS011;10663;42.714;23.274;2023-01-16T02:58:43;46.25;;;28.88;;
21010;SDS011;10663;42.714;23.274;2023-01-16T03:00:15;41.93;;;28.73;;
21010;SDS011;10663;42.714;23.274;2023-01-16T03:01:49;46.88;;;29.77;;
21010;SDS011;10663;42.714;23.274;2023-01-16T03:05:12;44.33;;;27.70;;
21010;SDS011;10663;42.714;23.274;2023-01-16T03:06:51;45.03;;;28.97;;
21010;SDS011;10663;42.714;23.274;2023-01-16T03:11:17;48.08;;;30.10;;
21010;SDS011;10663;42.714;23.274;2023-01-16T03:16:23;46.83;;;32.58;;
21010;SDS011;10663;42.714;23.274;2023-01-16T03:23:37;48.15;;;29.98;;
21010;SDS011;10663;42.714;23.274;2023-01-16T03:25:24;48.85;;;29.95;;
21010;SDS011;10663;42.714;23.274;2023-01-16T03:29:50;43.47;;;29.35;;
21010;SDS011;10663;42.714;23.274;2023-01-16T03:31:12;45.63;;;29.45;;
21010;SDS011;10663;42.714;23.274;2023-01-16T03:33:11;42.55;;;27.75;;
21010;SDS011;10663;42.714;23.274;2023-01-16T03:34:56;40.70;;;27.47;;
21010;SDS011;10663;42.714;23.274;2023-01-16T03:38:13;41.20;;;26.90;;
21010;SDS011;10663;42.714;23.274;2023-01-16T03:39:47;39.83;;;27.00;;
21010;SDS011;10663;42.714;23.274;2023-01-16T03:41:23;43.90;;;28.25;;
21010;SDS011;10663;42.714;23.274;2023-01-16T03:43:00;43.22;;;28.10;;
21010;SDS011;10663;42.714;23.274;2023-01-16T03:44:36;43.25;;;27.00;;
21010;SDS011;10663;42.714;23.274;2023-01-16T03:46:20;47.53;;;29.20;;
21010;SDS011;10663;42.714;23.274;2023-01-16T03:48:03;44.55;;;29.13;;
21010;SDS011;10663;42.714;23.274;2023-01-16T03:49:40;41.95;;;27.75;;
21010;SDS011;10663;42.714;23.274;2023-01-16T03:51:24;45.15;;;29.17;;
21010;SDS011;10663;42.714;23.274;2023-01-16T03:52:57;41.05;;;28.13;;
21010;SDS011;10663;42.714;23.274;2023-01-16T03:54:38;40.17;;;27.13;;
21010;SDS011;10663;42.714;23.274;2023-01-16T03:56:20;41.28;;;26.73;;
21010;SDS011;10663;42.714;23.274;2023-01-16T03:57:59;42.40;;;28.13;;
21010;SDS011;10663;42.714;23.274;2023-01-16T03:59:39;41.20;;;28.17;;
21010;SDS011;10663;42.714;23.274;2023-01-16T04:04:40;44.65;;;28.50;;
21010;SDS011;10663;42.714;23.274;2023-01-16T04:06:19;42.47;;;28.05;;
21010;SDS011;10663;42.714;23.274;2023-01-16T04:08:14;46.85;;;28.80;;
21010;SDS011;10663;42.714;23.274;2023-01-16T04:09:58;47.80;;;30.65;;
21010;SDS011;10663;42.714;23.274;2023-01-16T04:11:32;47.88;;;30.52;;
21010;SDS011;10663;42.714;23.274;2023-01-16T04:13:14;51.47;;;31.42;;
21010;SDS011;10663;42.714;23.274;2023-01-16T04:14:50;49.85;;;31.42;;
21010;SDS011;10663;42.714;23.274;2023-01-16T04:16:27;49.45;;;31.60;;
21010;SDS011;10663;42.714;23.274;2023-01-16T04:18:00;50.13;;;31.67;;
21010;SDS011;10663;42.714;23.274;2023-01-16T04:19:32;48.40;;;29.77;;
21010;SDS011;10663;42.714;23.274;2023-01-16T04:21:04;54.05;;;32.25;;
21010;SDS011;10663;42.714;23.274;2023-01-16T04:22:36;48.85;;;30.02;;
21010;SDS011;10663;42.714;23.274;2023-01-16T04:24:07;50.85;;;32.70;;
21010;SDS011;10663;42.714;23.274;2023-01-16T04:25:38;49.88;;;32.03;;
21010;SDS011;10663;42.714;23.274;2023-01-16T04:27:12;52.42;;;32.35;;
21010;SDS011;10663;42.714;23.274;2023-01-16T04:28:43;51.78;;;31.20;;
21010;SDS011;10663;42.714;23.274;2023-01-16T04:30:14;51.63;;;32.17;;
21010;SDS011;10663;42.714;23.274;2023-01-16T04:31:46;48.45;;;29.92;;
21010;SDS011;10663;42.714;23.274;2023-01-16T04:33:16;49.28;;;31.85;;
21010;SDS011;10663;42.714;23.274;2023-01-16T04:34:47;55.33;;;33.63;;
21010;SDS011;10663;42.714;23.274;2023-01-16T04:36:18;55.72;;;33.55;;
21010;SDS011;10663;42.714;23.274;2023-01-16T04:37:49;53.08;;;33.58;;
21010;SDS011;10663;42.714;23.274;2023-01-16T04:39:19;53.03;;;32.67;;
21010;SDS011;10663;42.714;23.274;2023-01-16T04:40:52;50.80;;;31.88;;
21010;SDS011;10663;42.714;23.274;2023-01-16T04:42:24;58.28;;;36.22;;
21010;SDS011;10663;42.714;23.274;2023-01-16T04:43:55;56.90;;;34.65;;
21010;SDS011;10663;42.714;23.274;2023-01-16T04:45:26;59.85;;;34.95;;
21010;SDS011;10663;42.714;23.274;2023-01-16T04:46:56;58.00;;;35.17;;
21010;SDS011;10663;42.714;23.274;2023-01-16T04:48:27;62.35;;;34.00;;
21010;SDS011;10663;42.714;23.274;2023-01-16T04:49:58;62.30;;;35.45;;
21010;SDS011;10663;42.714;23.274;2023-01-16T04:51:29;67.13;;;38.00;;
21010;SDS011;10663;42.714;23.274;2023-01-16T04:53:03;66.95;;;37.67;;
21010;SDS011;10663;42.714;23.274;2023-01-16T04:54:34;68.97;;;37.83;;
21010;SDS011;10663;42.714;23.274;2023-01-16T04:56:05;69.13;;;38.42;;
21010;SDS011;10663;42.714;23.274;2023-01-16T04:57:36;60.85;;;32.75;;
21010;SDS011;10663;42.714;23.274;2023-01-16T04:59:07;62.08;;;32.08;;
21010;SDS011;10663;42.714;23.274;2023-01-16T05:00:39;72.93;;;38.92;;
21010;SDS011;10663;42.714;23.274;2023-01-16T05:02:10;66.67;;;36.00;;
21010;SDS011;10663;42.714;23.274;2023-01-16T05:03:41;66.97;;;35.53;;
21010;SDS011;10663;42.714;23.274;2023-01-16T05:05:11;66.47;;;36.43;;
21010;SDS011;10663;42.714;23.274;2023-01-16T05:06:42;68.35;;;36.55;;
21010;SDS011;10663;42.714;23.274;2023-01-16T05:08:13;74.00;;;37.73;;
21010;SDS011;10663;42.714;23.274;2023-01-16T05:09:47;74.38;;;39.55;;
21010;SDS011;10663;42.714;23.274;2023-01-16T05:11:18;65.20;;;36.63;;
21010;SDS011;10663;42.714;23.274;2023-01-16T05:12:49;63.97;;;35.35;;
21010;SDS011;10663;42.714;23.274;2023-01-16T05:14:19;56.75;;;33.22;;
21010;SDS011;10663;42.714;23.274;2023-01-16T05:15:50;68.85;;;34.42;;
21010;SDS011;10663;42.714;23.274;2023-01-16T05:17:21;78.43;;;40.93;;
21010;SDS011;10663;42.714;23.274;2023-01-16T05:18:55;75.07;;;40.20;;
21010;SDS011;10663;42.714;23.274;2023-01-16T05:20:26;80.75;;;42.03;;
21010;SDS011;10663;42.714;23.274;2023-01-16T05:21:57;80.53;;;39.58;;
21010;SDS011;10663;42.714;23.274;2023-01-16T05:23:28;51.53;;;30.33;;
21010;SDS011;10663;42.714;23.274;2023-01-16T05:24:59;56.78;;;31.90;;
21010;SDS011;10663;42.714;23.274;2023-01-16T05:26:30;70.03;;;34.80;;
21010;SDS011;10663;42.714;23.274;2023-01-16T05:28:01;68.28;;;34.13;;
21010;SDS011;10663;42.714;23.274;2023-01-16T05:29:32;59.75;;;31.80;;
21010;SDS011;10663;42.714;23.274;2023-01-16T05:31:03;57.50;;;30.70;;
21010;SDS011;10663;42.714;23.274;2023-01-16T05:32:35;57.53;;;30.37;;
21010;SDS011;10663;42.714;23.274;2023-01-16T05:34:05;54.67;;;30.23;;
21010;SDS011;10663;42.714;23.274;2023-01-16T05:35:36;53.13;;;29.00;;
21010;SDS011;10663;42.714;23.274;2023-01-16T05:37:07;56.65;;;30.80;;
21010;SDS011;10663;42.714;23.274;2023-01-16T05:38:38;56.83;;;29.55;;
21010;SDS011;10663;42.714;23.274;2023-01-16T05:40:09;58.30;;;28.65;;
21010;SDS011;10663;42.714;23.274;2023-01-16T05:41:41;52.47;;;29.20;;
21010;SDS011;10663;42.714;23.274;2023-01-16T05:43:12;48.73;;;27.57;;
21010;SDS011;10663;42.714;23.274;2023-01-16T05:44:43;41.88;;;25.23;;
21010;SDS011;10663;42.714;23.274;2023-01-16T05:46:13;39.78;;;24.85;;
21010;SDS011;10663;42.714;23.274;2023-01-16T05:47:44;50.28;;;28.67;;
21010;SDS011;10663;42.714;23.274;2023-01-16T05:49:15;53.17;;;28.48;;
21010;SDS011;10663;42.714;23.274;2023-01-16T05:50:46;46.88;;;27.33;;
21010;SDS011;10663;42.714;23.274;2023-01-16T05:52:17;48.30;;;27.70;;
21010;SDS011;10663;42.714;23.274;2023-01-16T05:53:51;48.13;;;26.88;;
21010;SDS011;10663;42.714;23.274;2023-01-16T05:55:22;43.95;;;26.17;;
21010;SDS011;10663;42.714;23.274;2023-01-16T05:56:53;42.78;;;26.33;;
21010;SDS011;10663;42.714;23.274;2023-01-16T05:58:24;44.97;;;25.27;;
21010;SDS011;10663;42.714;23.274;2023-01-16T05:59:55;46.13;;;25.73;;
21010;SDS011;10663;42.714;23.274;2023-01-16T06:01:26;45.03;;;26.38;;
21010;SDS011;10663;42.714;23.274;2023-01-16T06:02:57;51.95;;;28.42;;
21010;SDS011;10663;42.714;23.274;2023-01-16T06:04:28;48.00;;;27.30;;
21010;SDS011;10663;42.714;23.274;2023-01-16T06:05:59;52.22;;;26.77;;
21010;SDS011;10663;42.714;23.274;2023-01-16T06:07:31;51.67;;;28.52;;
21010;SDS011;10663;42.714;23.274;2023-01-16T06:09:01;48.67;;;27.95;;
21010;SDS011;10663;42.714;23.274;2023-01-16T06:10:33;55.25;;;29.38;;
21010;SDS011;10663;42.714;23.274;2023-01-16T06:12:05;56.13;;;29.48;;
21010;SDS011;10663;42.714;23.274;2023-01-16T06:13:39;60.78;;;30.55;;
21010;SDS011;10663;42.714;23.274;2023-01-16T06:15:10;58.38;;;30.33;;
21010;SDS011;10663;42.714;23.274;2023-01-16T06:16:41;49.53;;;28.17;;
21010;SDS011;10663;42.714;23.274;2023-01-16T06:18:12;49.00;;;28.17;;
21010;SDS011;10663;42.714;23.274;2023-01-16T06:19:44;62.85;;;31.33;;
21010;SDS011;10663;42.714;23.274;2023-01-16T06:21:15;62.47;;;30.65;;
21010;SDS011;10663;42.714;23.274;2023-01-16T06:22:46;65.90;;;32.92;;
21010;SDS011;10663;42.714;23.274;2023-01-16T06:24:17;65.77;;;33.03;;
21010;SDS011;10663;42.714;23.274;2023-01-16T06:25:49;60.10;;;31.15;;
21010;SDS011;10663;42.714;23.274;2023-01-16T06:27:20;54.40;;;30.17;;
21010;SDS011;10663;42.714;23.274;2023-01-16T06:28:53;53.50;;;29.98;;
21010;SDS011;10663;42.714;23.274;2023-01-16T06:30:26;59.65;;;31.75;;
21010;SDS011;10663;42.714;23.274;2023-01-16T06:31:57;62.45;;;31.83;;
21010;SDS011;10663;42.714;23.274;2023-01-16T06:33:28;68.07;;;31.63;;
21010;SDS011;10663;42.714;23.274;2023-01-16T06:34:59;64.15;;;32.95;;
21010;SDS011;10663;42.714;23.274;2023-01-16T06:36:30;66.55;;;34.72;;
21010;SDS011;10663;42.714;23.274;2023-01-16T06:38:01;64.55;;;33.42;;
21010;SDS011;10663;42.714;23.274;2023-01-16T06:39:31;68.88;;;34.03;;
21010;SDS011;10663;42.714;23.274;2023-01-16T06:41:02;66.60;;;35.80;;
21010;SDS011;10663;42.714;23.274;2023-01-16T06:42:36;66.80;;;34.40;;
21010;SDS011;10663;42.714;23.274;2023-01-16T06:44:07;67.78;;;36.42;;
21010;SDS011;10663;42.714;23.274;2023-01-16T06:45:38;68.47;;;32.92;;
21010;SDS011;10663;42.714;23.274;2023-01-16T06:47:09;63.42;;;34.08;;
21010;SDS011;10663;42.714;23.274;2023-01-16T06:48:40;64.82;;;34.47;;
21010;SDS011;10663;42.714;23.274;2023-01-16T06:50:12;63.67;;;34.72;;
21010;SDS011;10663;42.714;23.274;2023-01-16T06:51:42;64.95;;;33.63;;
21010;SDS011;10663;42.714;23.274;2023-01-16T06:53:14;65.03;;;34.65;;
21010;SDS011;10663;42.714;23.274;2023-01-16T06:54:45;72.15;;;35.80;;
21010;SDS011;10663;42.714;23.274;2023-01-16T06:56:16;63.97;;;34.70;;
21010;SDS011;10663;42.714;23.274;2023-01-16T06:57:47;64.13;;;35.22;;
21010;SDS011;10663;42.714;23.274;2023-01-16T06:59:18;64.47;;;34.00;;
21010;SDS011;10663;42.714;23.274;2023-01-16T07:00:49;71.17;;;37.33;;
21010;SDS011;10663;42.714;23.274;2023-01-16T07:02:21;64.90;;;35.95;;
21010;SDS011;10663;42.714;23.274;2023-01-16T07:03:52;69.57;;;36.33;;
21010;SDS011;10663;42.714;23.274;2023-01-16T07:05:24;67.57;;;37.67;;
21010;SDS011;10663;42.714;23.274;2023-01-16T07:06:56;64.78;;;35.65;;
21010;SDS011;10663;42.714;23.274;2023-01-16T07:08:27;68.13;;;37.55;;
21010;SDS011;10663;42.714;23.274;2023-01-16T07:09:58;71.95;;;36.83;;
21010;SDS011;10663;42.714;23.274;2023-01-16T07:11:29;68.45;;;36.60;;
21010;SDS011;10663;42.714;23.274;2023-01-16T07:13:00;67.93;;;37.20;;
21010;SDS011;10663;42.714;23.274;2023-01-16T07:14:31;61.60;;;35.75;;
21010;SDS011;10663;42.714;23.274;2023-01-16T07:16:20;72.20;;;36.97;;
21010;SDS011;10663;42.714;23.274;2023-01-16T07:18:13;79.88;;;41.20;;
21010;SDS011;10663;42.714;23.274;2023-01-16T07:20:04;74.00;;;38.53;;
21010;SDS011;10663;42.714;23.274;2023-01-16T07:21:53;71.63;;;38.35;;
21010;SDS011;10663;42.714;23.274;2023-01-16T07:23:44;68.72;;;39.15;;
21010;SDS011;10663;42.714;23.274;2023-01-16T07:25:32;74.72;;;37.90;;
21010;SDS011;10663;42.714;23.274;2023-01-16T07:27:05;71.60;;;38.35;;
21010;SDS011;10663;42.714;23.274;2023-01-16T07:28:40;71.13;;;37.45;;
21010;SDS011;10663;42.714;23.274;2023-01-16T07:30:11;71.45;;;39.20;;
21010;SDS011;10663;42.714;23.274;2023-01-16T07:31:42;65.90;;;36.10;;
21010;SDS011;10663;42.714;23.274;2023-01-16T07:33:13;64.72;;;36.30;;
21010;SDS011;10663;42.714;23.274;2023-01-16T07:34:45;64.13;;;35.88;;
21010;SDS011;10663;42.714;23.274;2023-01-16T07:36:16;59.17;;;32.20;;
21010;SDS011;10663;42.714;23.274;2023-01-16T07:37:47;60.60;;;32.80;;
21010;SDS011;10663;42.714;23.274;2023-01-16T07:39:17;62.10;;;34.93;;
21010;SDS011;10663;42.714;23.274;2023-01-16T07:40:49;60.87;;;34.03;;
21010;SDS011;10663;42.714;23.274;2023-01-16T07:42:20;57.15;;;33.00;;
21010;SDS011;10663;42.714;23.274;2023-01-16T07:43:51;57.65;;;32.53;;
21010;SDS011;10663;42.714;23.274;2023-01-16T07:45:22;61.55;;;32.25;;
21010;SDS011;10663;42.714;23.274;2023-01-16T07:46:53;55.67;;;32.03;;
21010;SDS011;10663;42.714;23.274;2023-01-16T07:48:24;57.42;;;33.58;;
21010;SDS011;10663;42.714;23.274;2023-01-16T07:49:55;54.90;;;32.38;;
21010;SDS011;10663;42.714;23.274;2023-01-16T07:51:29;52.38;;;31.48;;
21010;SDS011;10663;42.714;23.274;2023-01-16T07:52:59;54.35;;;30.98;;
21010;SDS011;10663;42.714;23.274;2023-01-16T07:54:30;55.25;;;31.25;;
21010;SDS011;10663;42.714;23.274;2023-01-16T07:56:01;54.03;;;32.15;;
21010;SDS011;10663;42.714;23.274;2023-01-16T07:57:34;51.58;;;30.38;;
21010;SDS011;10663;42.714;23.274;2023-01-16T07:59:07;51.00;;;30.13;;
21010;SDS011;10663;42.714;23.274;2023-01-16T08:00:38;48.20;;;29.08;;
21010;SDS011;10663;42.714;23.274;2023-01-16T08:02:09;47.00;;;29.48;;
21010;SDS011;10663;42.714;23.274;2023-01-16T08:03:40;49.50;;;30.13;;
21010;SDS011;10663;42.714;23.274;2023-01-16T08:05:11;51.35;;;29.23;;
21010;SDS011;10663;42.714;23.274;2023-01-16T08:06:42;55.83;;;33.47;;
21010;SDS011;10663;42.714;23.274;2023-01-16T08:08:15;53.40;;;32.47;;
21010;SDS011;10663;42.714;23.274;2023-01-16T08:09:47;56.60;;;32.13;;
21010;SDS011;10663;42.714;23.274;2023-01-16T08:11:18;55.87;;;32.87;;
21010;SDS011;10663;42.714;23.274;2023-01-16T08:13:07;62.25;;;35.72;;
21010;SDS011;10663;42.714;23.274;2023-01-16T08:14:38;60.87;;;36.00;;
21010;SDS011;10663;42.714;23.274;2023-01-16T08:16:09;61.55;;;36.30;;
21010;SDS011;10663;42.714;23.274;2023-01-16T08:17:40;63.65;;;37.00;;
21010;SDS011;10663;42.714;23.274;2023-01-16T08:19:11;62.17;;;36.72;;
21010;SDS011;10663;42.714;23.274;2023-01-16T08:20:42;65.35;;;36.63;;
21010;SDS011;10663;42.714;23.274;2023-01-16T08:22:14;61.85;;;38.00;;
21010;SDS011;10663;42.714;23.274;2023-01-16T08:23:45;69.40;;;41.75;;
21010;SDS011;10663;42.714;23.274;2023-01-16T08:25:18;74.00;;;43.13;;
21010;SDS011;10663;42.714;23.274;2023-01-16T08:26:51;75.32;;;44.75;;
21010;SDS011;10663;42.714;23.274;2023-01-16T08:28:22;77.93;;;44.97;;
21010;SDS011;10663;42.714;23.274;2023-01-16T08:29:52;72.15;;;43.88;;
21010;SDS011;10663;42.714;23.274;2023-01-16T08:31:23;71.97;;;41.95;;
21010;SDS011;10663;42.714;23.274;2023-01-16T08:32:57;74.80;;;43.17;;
21010;SDS011;10663;42.714;23.274;2023-01-16T08:34:29;69.18;;;41.08;;
21010;SDS011;10663;42.714;23.274;2023-01-16T08:36:00;74.55;;;44.67;;
21010;SDS011;10663;42.714;23.274;2023-01-16T08:37:32;70.78;;;42.35;;
21010;SDS011;10663;42.714;23.274;2023-01-16T08:39:03;72.78;;;43.70;;
21010;SDS011;10663;42.714;23.274;2023-01-16T08:40:35;71.90;;;43.25;;
21010;SDS011;10663;42.714;23.274;2023-01-16T08:42:05;73.32;;;43.00;;
21010;SDS011;10663;42.714;23.274;2023-01-16T08:43:55;74.70;;;44.95;;
21010;SDS011;10663;42.714;23.274;2023-01-16T08:45:45;71.00;;;43.67;;
21010;SDS011;10663;42.714;23.274;2023-01-16T08:47:34;71.32;;;42.33;;
21010;SDS011;10663;42.714;23.274;2023-01-16T08:49:26;71.95;;;43.70;;
21010;SDS011;10663;42.714;23.274;2023-01-16T08:51:16;71.38;;;44.75;;
21010;SDS011;10663;42.714;23.274;2023-01-16T08:52:53;69.53;;;43.53;;
21010;SDS011;10663;42.714;23.274;2023-01-16T08:54:24;68.97;;;42.95;;
21010;SDS011;10663;42.714;23.274;2023-01-16T08:55:55;65.40;;;42.72;;
21010;SDS011;10663;42.714;23.274;2023-01-16T08:57:26;67.63;;;42.20;;
21010;SDS011;10663;42.714;23.274;2023-01-16T08:58:57;65.00;;;42.25;;
21010;SDS011;10663;42.714;23.274;2023-01-16T09:00:29;66.70;;;42.15;;
21010;SDS011;10663;42.714;23.274;2023-01-16T09:02:00;68.47;;;40.75;;
21010;SDS011;10663;42.714;23.274;2023-01-16T09:03:32;68.40;;;41.63;;
21010;SDS011;10663;42.714;23.274;2023-01-16T09:05:04;67.65;;;43.58;;
21010;SDS011;10663;42.714;23.274;2023-01-16T09:06:36;70.47;;;44.58;;
21010;SDS011;10663;42.714;23.274;2023-01-16T09:08:08;69.70;;;43.00;;
21010;SDS011;10663;42.714;23.274;2023-01-16T09:09:39;58.45;;;36.50;;
21010;SDS011;10663;42.714;23.274;2023-01-16T09:11:11;55.53;;;35.53;;
21010;SDS011;10663;42.714;23.274;2023-01-16T09:13:00;58.85;;;38.15;;
21010;SDS011;10663;42.714;23.274;2023-01-16T09:14:50;57.25;;;36.42;;
21010;SDS011;10663;42.714;23.274;2023-01-16T09:16:23;63.83;;;38.70;;
21010;SDS011;10663;42.714;23.274;2023-01-16T09:17:55;57.53;;;37.65;;
21010;SDS011;10663;42.714;23.274;2023-01-16T09:19:26;55.03;;;35.47;;
21010;SDS011;10663;42.714;23.274;2023-01-16T09:20:56;59.43;;;36.77;;
21010;SDS011;10663;42.714;23.274;2023-01-16T09:22:27;55.57;;;36.43;;
21010;SDS011;10663;42.714;23.274;2023-01-16T09:23:58;56.70;;;36.85;;
21010;SDS011;10663;42.714;23.274;2023-01-16T09:25:29;56.95;;;36.20;;
21010;SDS011;10663;42.714;23.274;2023-01-16T09:27:01;54.53;;;36.22;;
21010;SDS011;10663;42.714;23.274;2023-01-16T09:28:33;57.13;;;36.28;;
21010;SDS011;10663;42.714;23.274;2023-01-16T09:30:04;52.35;;;34.20;;
21010;SDS011;10663;42.714;23.274;2023-01-16T09:31:35;52.83;;;33.60;;
21010;SDS011;10663;42.714;23.274;2023-01-16T09:33:06;54.85;;;33.78;;
21010;SDS011;10663;42.714;23.274;2023-01-16T09:34:38;53.38;;;34.42;;
21010;SDS011;10663;42.714;23.274;2023-01-16T09:36:09;54.50;;;33.60;;
21010;SDS011;10663;42.714;23.274;2023-01-16T09:37:42;51.53;;;33.63;;
21010;SDS011;10663;42.714;23.274;2023-01-16T09:39:13;52.60;;;33.22;;
21010;SDS011;10663;42.714;23.274;2023-01-16T09:40:45;50.35;;;33.10;;
21010;SDS011;10663;42.714;23.274;2023-01-16T09:44:41;47.60;;;30.45;;